createdAt,value
2018-03-15T00:00:02.132Z,10.00
2018-03-15T00:01:02.078Z,10.90
2018-03-15T00:02:02.053Z,10.20
2018-03-15T00:03:01.980Z,10.10
2018-03-15T00:04:01.921Z,10.20
2018-03-15T00:05:01.876Z,10.90
2018-03-15T00:06:01.823Z,10.80
2018-03-15T00:07:01.795Z,10.40
2018-03-15T00:08:01.722Z,10.50
2018-03-15T00:09:01.684Z,10.60
2018-03-15T00:10:01.619Z,11.00
2018-03-15T00:11:01.571Z,10.20
2018-03-15T00:12:01.536Z,11.10
2018-03-15T00:13:01.464Z,10.80
2018-03-15T00:14:01.414Z,11.10
2018-03-15T00:15:01.366Z,10.80
2018-03-15T00:16:01.312Z,10.70
2018-03-15T00:17:01.284Z,10.20
2018-03-15T00:18:01.214Z,10.60
2018-03-15T00:19:01.159Z,9.90
2018-03-15T00:20:01.105Z,10.80
2018-03-15T00:21:01.055Z,10.90
2018-03-15T00:22:01.025Z,10.80
2018-03-15T00:23:00.957Z,11.00
2018-03-15T00:24:00.900Z,11.00
2018-03-15T00:25:00.853Z,10.60
2018-03-15T00:26:00.805Z,10.10
2018-03-15T00:27:00.774Z,10.50
2018-03-15T00:28:00.699Z,10.50
2018-03-15T00:29:00.647Z,10.80
2018-03-15T00:30:00.595Z,10.60
2018-03-15T00:31:00.539Z,10.50
2018-03-15T00:32:00.514Z,10.60
2018-03-15T00:33:00.445Z,10.60
2018-03-15T00:34:00.390Z,10.90
2018-03-15T00:35:00.339Z,10.80
2018-03-15T00:36:00.288Z,11.40
2018-03-15T00:37:00.264Z,11.10
2018-03-15T00:38:00.191Z,10.60
2018-03-15T00:39:00.133Z,11.00
2018-03-15T00:40:00.086Z,11.00
2018-03-15T00:41:00.035Z,10.60
2018-03-15T00:42:00.007Z,10.60
2018-03-15T00:42:59.930Z,11.10
2018-03-15T00:43:59.877Z,10.70
2018-03-15T00:44:59.831Z,10.40
2018-03-15T00:45:59.781Z,10.70
2018-03-15T00:46:59.751Z,10.90
2018-03-15T00:47:59.675Z,10.60
2018-03-15T00:48:59.621Z,10.90
2018-03-15T00:49:59.570Z,10.70
2018-03-15T00:50:59.522Z,10.50
2018-03-15T00:51:59.494Z,11.00
2018-03-15T00:52:59.423Z,11.00
2018-03-15T00:53:59.366Z,11.30
2018-03-15T00:54:59.322Z,11.20
2018-03-15T00:55:59.264Z,10.40
2018-03-15T00:56:59.239Z,10.90
2018-03-15T00:57:59.163Z,10.90
2018-03-15T00:58:59.109Z,11.40
2018-03-15T00:59:59.064Z,11.30
2018-03-15T01:00:59.007Z,10.90
2018-03-15T01:01:58.987Z,10.90
2018-03-15T01:02:58.906Z,11.40
2018-03-15T01:03:58.852Z,11.20
2018-03-15T01:04:58.806Z,11.10
2018-03-15T01:05:58.758Z,11.40
2018-03-15T01:06:58.724Z,11.30
2018-03-15T01:07:58.648Z,11.20
2018-03-15T01:10:30.238Z,11.00
2018-03-15T01:11:30.179Z,10.70
2018-03-15T01:12:30.151Z,11.00
2018-03-15T01:13:30.077Z,10.90
2018-03-15T01:14:30.026Z,10.60
2018-03-15T01:15:29.977Z,10.60
2018-03-15T01:16:29.921Z,10.60
2018-03-15T01:17:29.898Z,10.90
2018-03-15T01:18:29.820Z,11.00
2018-03-15T01:19:29.770Z,11.10
2018-03-15T01:20:29.719Z,11.10
2018-03-15T01:21:29.662Z,11.30
2018-03-15T01:22:29.641Z,11.20
2018-03-15T01:23:29.561Z,11.20
2018-03-15T01:24:29.516Z,11.10
2018-03-15T01:25:29.457Z,10.80
2018-03-15T01:26:29.416Z,10.70
2018-03-15T01:27:29.378Z,11.60
2018-03-15T01:28:29.303Z,11.30
2018-03-15T01:29:29.257Z,11.70
2018-03-15T01:30:29.203Z,11.60
2018-03-15T01:31:29.153Z,11.50
2018-03-15T01:32:29.124Z,11.60
2018-03-15T01:33:29.049Z,11.70
2018-03-15T01:34:28.998Z,11.80
2018-03-15T01:35:28.947Z,11.40
2018-03-15T01:36:28.894Z,12.00
2018-03-15T01:37:28.866Z,12.20
2018-03-15T01:38:28.795Z,12.00
2018-03-15T01:39:28.740Z,12.40
2018-03-15T01:40:28.689Z,12.30
2018-03-15T01:41:28.636Z,12.80
2018-03-15T01:42:28.608Z,12.70
2018-03-15T01:43:28.532Z,12.00
2018-03-15T01:44:28.482Z,12.20
2018-03-15T01:45:28.431Z,12.70
2018-03-15T01:46:28.381Z,13.00
2018-03-15T01:47:28.351Z,12.20
2018-03-15T01:48:28.278Z,13.10
2018-03-15T01:49:28.222Z,12.50
2018-03-15T01:50:28.179Z,12.60
2018-03-15T01:51:28.118Z,12.80
2018-03-15T01:52:28.099Z,12.60
2018-03-15T01:53:28.015Z,12.80
2018-03-15T01:54:27.963Z,12.60
2018-03-15T01:55:27.917Z,13.10
2018-03-15T01:56:27.860Z,13.00
2018-03-15T01:57:27.837Z,13.00
2018-03-15T01:58:27.760Z,13.10
2018-03-15T01:59:27.713Z,13.30
2018-03-15T02:00:27.664Z,13.30
2018-03-15T02:01:27.606Z,13.10
2018-03-15T02:02:27.579Z,13.60
2018-03-15T02:03:27.501Z,13.20
2018-03-15T02:04:27.452Z,13.50
2018-03-15T02:05:27.409Z,13.50
2018-03-15T02:06:27.354Z,13.70
2018-03-15T02:07:27.318Z,12.80
2018-03-15T02:08:27.246Z,14.10
2018-03-15T02:09:27.194Z,13.70
2018-03-15T02:10:27.138Z,14.00
2018-03-15T02:11:27.091Z,14.20
2018-03-15T02:12:27.063Z,13.50
2018-03-15T02:13:26.990Z,13.70
2018-03-15T02:14:26.938Z,14.00
2018-03-15T02:15:26.883Z,14.10
2018-03-15T02:16:26.835Z,14.30
2018-03-15T02:17:26.807Z,14.20
2018-03-15T02:18:26.730Z,13.70
2018-03-15T02:19:26.678Z,14.00
2018-03-15T02:20:26.632Z,14.00
2018-03-15T02:21:26.574Z,14.80
2018-03-15T02:22:26.547Z,14.70
2018-03-15T02:23:26.476Z,14.10
2018-03-15T02:24:26.421Z,14.20
2018-03-15T02:25:26.374Z,15.00
2018-03-15T02:26:26.320Z,14.30
2018-03-15T02:27:26.290Z,14.50
2018-03-15T02:28:26.217Z,14.00
2018-03-15T02:29:26.164Z,14.00
2018-03-15T02:30:26.115Z,14.50
2018-03-15T02:31:26.061Z,14.60
2018-03-15T02:32:26.038Z,14.70
2018-03-15T02:33:25.962Z,14.80
2018-03-15T02:34:25.904Z,14.50
2018-03-15T02:35:25.857Z,14.00
2018-03-15T02:36:25.806Z,14.70
2018-03-15T02:37:25.773Z,14.80
2018-03-15T02:38:25.701Z,14.30
2018-03-15T02:39:25.651Z,14.70
2018-03-15T02:40:25.599Z,14.60
2018-03-15T02:41:25.548Z,14.70
2018-03-15T02:42:25.515Z,14.90
2018-03-15T02:43:25.441Z,14.70
2018-03-15T02:44:25.394Z,15.10
2018-03-15T02:45:25.340Z,14.60
2018-03-15T02:46:25.287Z,15.00
2018-03-15T02:47:25.262Z,15.20
2018-03-15T02:48:25.195Z,14.90
2018-03-15T02:49:25.136Z,15.40
2018-03-15T02:50:25.080Z,14.70
2018-03-15T02:51:25.029Z,14.70
2018-03-15T02:52:25.006Z,15.40
2018-03-15T02:53:24.930Z,15.40
2018-03-15T02:54:24.875Z,15.30
2018-03-15T02:55:24.824Z,15.60
2018-03-15T02:56:24.776Z,15.00
2018-03-15T02:57:24.754Z,15.40
2018-03-15T02:58:24.672Z,14.70
2018-03-15T02:59:24.620Z,14.80
2018-03-15T03:00:24.567Z,15.40
2018-03-15T03:01:24.515Z,15.90
2018-03-15T03:02:24.468Z,14.90
2018-03-15T03:03:24.437Z,15.20
2018-03-15T03:04:24.362Z,15.60
2018-03-15T03:05:24.313Z,15.70
2018-03-15T03:06:24.259Z,15.70
2018-03-15T03:07:24.213Z,16.10
2018-03-15T03:08:24.181Z,15.50
2018-03-15T03:09:24.101Z,15.60
2018-03-15T03:10:24.054Z,16.10
2018-03-15T03:11:23.999Z,15.80
2018-03-15T03:12:23.951Z,16.40
2018-03-15T03:13:23.920Z,15.50
2018-03-15T03:14:23.847Z,15.20
2018-03-15T03:15:23.800Z,16.00
2018-03-15T03:16:23.739Z,16.20
2018-03-15T03:17:23.706Z,15.90
2018-03-15T03:18:23.661Z,15.40
2018-03-15T03:19:23.589Z,16.00
2018-03-15T03:20:23.538Z,16.20
2018-03-15T03:21:23.486Z,16.50
2018-03-15T03:22:23.431Z,16.30
2018-03-15T03:23:23.406Z,16.70
2018-03-15T03:24:23.331Z,16.30
2018-03-15T03:25:23.280Z,16.50
2018-03-15T03:26:23.231Z,16.60
2018-03-15T03:27:23.175Z,15.70
2018-03-15T03:28:23.153Z,16.70
2018-03-15T03:29:23.076Z,16.10
2018-03-15T03:30:23.022Z,16.20
2018-03-15T03:31:22.967Z,16.50
2018-03-15T03:32:22.915Z,16.00
2018-03-15T03:33:22.895Z,16.60
2018-03-15T03:34:22.815Z,16.50
2018-03-15T03:35:22.759Z,16.90
2018-03-15T03:36:22.714Z,16.00
2018-03-15T03:37:22.661Z,16.00
2018-03-15T03:38:22.629Z,16.30
2018-03-15T03:39:22.556Z,15.60
2018-03-15T03:40:22.508Z,17.00
2018-03-15T03:41:22.456Z,17.00
2018-03-15T03:42:22.405Z,16.70
2018-03-15T03:43:22.374Z,16.10
2018-03-15T03:44:22.302Z,16.50
2018-03-15T03:45:22.248Z,16.40
2018-03-15T03:46:22.202Z,16.60
2018-03-15T03:47:22.146Z,16.70
2018-03-15T03:48:22.118Z,16.60
2018-03-15T03:49:22.041Z,16.70
2018-03-15T03:50:21.987Z,17.10
2018-03-15T03:51:21.936Z,16.40
2018-03-15T03:52:21.887Z,17.00
2018-03-15T03:53:21.857Z,17.80
2018-03-15T03:54:21.786Z,17.90
2018-03-15T03:55:21.732Z,17.30
2018-03-15T03:56:21.681Z,16.40
2018-03-15T03:57:21.627Z,17.00
2018-03-15T03:58:21.602Z,17.50
2018-03-15T03:59:21.524Z,17.10
2018-03-15T04:00:21.472Z,17.30
2018-03-15T04:01:21.421Z,16.90
2018-03-15T04:02:21.370Z,16.90
2018-03-15T04:03:21.366Z,17.40
2018-03-15T04:04:21.277Z,16.90
2018-03-15T04:05:21.219Z,16.90
2018-03-15T04:06:21.166Z,17.30
2018-03-15T04:07:21.111Z,17.20
2018-03-15T04:08:21.084Z,17.20
2018-03-15T04:09:21.011Z,17.50
2018-03-15T04:10:20.958Z,17.70
2018-03-15T04:11:20.930Z,17.80
2018-03-15T04:12:20.853Z,17.20
2018-03-15T04:13:20.828Z,17.00
2018-03-15T04:14:20.751Z,17.20
2018-03-15T04:15:20.702Z,17.20
2018-03-15T04:16:20.653Z,17.00
2018-03-15T04:17:20.598Z,17.30
2018-03-15T04:18:20.572Z,17.70
2018-03-15T04:19:20.493Z,17.00
2018-03-15T04:20:20.442Z,17.60
2018-03-15T04:21:20.388Z,17.30
2018-03-15T04:22:20.338Z,16.60
2018-03-15T04:23:20.312Z,17.50
2018-03-15T04:24:20.234Z,17.20
2018-03-15T04:25:20.186Z,17.20
2018-03-15T04:26:20.129Z,18.70
2018-03-15T04:27:20.077Z,18.50
2018-03-15T04:28:20.063Z,17.70
2018-03-15T04:29:19.976Z,18.10
2018-03-15T04:30:19.924Z,17.90
2018-03-15T04:31:19.873Z,18.10
2018-03-15T04:32:19.826Z,18.30
2018-03-15T04:33:19.791Z,18.50
2018-03-15T04:34:19.717Z,18.30
2018-03-15T04:35:19.669Z,17.10
2018-03-15T04:36:19.616Z,18.10
2018-03-15T04:37:19.564Z,17.50
2018-03-15T04:38:19.536Z,17.80
2018-03-15T04:39:19.460Z,17.00
2018-03-15T04:40:19.409Z,17.60
2018-03-15T04:41:19.357Z,18.00
2018-03-15T04:42:19.304Z,18.10
2018-03-15T04:43:19.278Z,18.60
2018-03-15T04:44:19.202Z,18.90
2018-03-15T04:45:19.155Z,18.40
2018-03-15T04:46:19.096Z,18.60
2018-03-15T04:47:19.047Z,18.90
2018-03-15T04:48:19.014Z,19.00
2018-03-15T04:49:18.942Z,18.30
2018-03-15T04:50:18.890Z,18.40
2018-03-15T04:51:18.843Z,18.70
2018-03-15T04:52:18.794Z,19.00
2018-03-15T04:53:18.764Z,19.30
2018-03-15T04:54:18.687Z,19.40
2018-03-15T04:55:18.634Z,18.90
2018-03-15T04:56:18.581Z,19.00
2018-03-15T04:57:18.529Z,19.20
2018-03-15T04:58:18.502Z,19.50
2018-03-15T04:59:18.427Z,19.80
2018-03-15T05:00:18.373Z,19.80
2018-03-15T05:01:18.321Z,19.10
2018-03-15T05:02:18.272Z,19.30
2018-03-15T05:03:18.246Z,19.50
2018-03-15T05:04:18.171Z,20.20
2018-03-15T05:05:18.124Z,19.90
2018-03-15T05:06:18.063Z,19.90
2018-03-15T05:07:18.013Z,19.10
2018-03-15T05:08:17.987Z,20.00
2018-03-15T05:09:17.913Z,19.60
2018-03-15T05:10:17.858Z,19.00
2018-03-15T05:11:17.804Z,19.60
2018-03-15T05:12:17.754Z,19.60
2018-03-15T05:13:17.727Z,19.90
2018-03-15T05:14:17.656Z,19.60
2018-03-15T05:15:17.601Z,19.80
2018-03-15T05:16:17.548Z,20.10
2018-03-15T05:17:17.497Z,20.10
2018-03-15T05:18:17.472Z,20.10
2018-03-15T05:19:17.395Z,20.70
2018-03-15T05:20:17.342Z,19.90
2018-03-15T05:21:17.292Z,19.90
2018-03-15T05:22:17.240Z,19.20
2018-03-15T05:23:17.207Z,20.40
2018-03-15T05:24:17.138Z,19.90
2018-03-15T05:25:17.084Z,19.60
2018-03-15T05:26:17.033Z,20.30
2018-03-15T05:27:16.986Z,19.70
2018-03-15T05:28:16.954Z,20.40
2018-03-15T05:29:16.878Z,20.30
2018-03-15T05:30:16.829Z,19.60
2018-03-15T05:31:16.777Z,19.90
2018-03-15T05:32:16.727Z,19.70
2018-03-15T05:33:16.691Z,20.20
2018-03-15T05:34:16.618Z,19.90
2018-03-15T05:35:16.580Z,19.20
2018-03-15T05:36:16.535Z,19.50
2018-03-15T05:37:16.497Z,19.90
2018-03-15T05:38:16.441Z,19.70
2018-03-15T05:39:16.360Z,19.60
2018-03-15T05:40:16.314Z,19.50
2018-03-15T05:41:16.255Z,19.50
2018-03-15T05:42:16.206Z,20.20
2018-03-15T05:43:16.176Z,18.80
2018-03-15T05:44:16.099Z,18.90
2018-03-15T05:45:16.051Z,19.00
2018-03-15T05:46:15.996Z,19.50
2018-03-15T05:47:15.948Z,19.30
2018-03-15T05:48:15.918Z,18.80
2018-03-15T05:49:15.848Z,19.70
2018-03-15T05:50:15.791Z,19.90
2018-03-15T05:51:15.735Z,19.40
2018-03-15T05:52:15.690Z,18.90
2018-03-15T05:53:15.635Z,18.60
2018-03-15T05:54:15.612Z,19.20
2018-03-15T05:55:15.536Z,19.90
2018-03-15T05:56:15.480Z,19.40
2018-03-15T05:57:15.432Z,19.80
2018-03-15T05:58:15.378Z,20.10
2018-03-15T05:59:15.347Z,19.60
2018-03-15T06:00:15.271Z,19.40
2018-03-15T06:01:15.226Z,19.50
2018-03-15T06:02:15.167Z,19.70
2018-03-15T06:03:15.117Z,19.90
2018-03-15T06:04:15.090Z,19.90
2018-03-15T06:05:15.017Z,19.20
2018-03-15T06:06:14.966Z,18.90
2018-03-15T06:07:14.913Z,19.30
2018-03-15T06:08:14.863Z,18.50
2018-03-15T06:09:14.838Z,19.30
2018-03-15T06:10:14.761Z,18.80
2018-03-15T06:11:14.706Z,19.00
2018-03-15T06:12:14.653Z,18.10
2018-03-15T06:13:14.599Z,18.70
2018-03-15T06:14:14.572Z,18.50
2018-03-15T06:15:14.496Z,18.70
2018-03-15T06:16:14.447Z,18.90
2018-03-15T06:17:14.399Z,18.50
2018-03-15T06:18:14.339Z,18.80
2018-03-15T06:19:14.331Z,18.60
2018-03-15T06:20:14.242Z,18.40
2018-03-15T06:21:14.185Z,19.20
2018-03-15T06:22:14.135Z,18.60
2018-03-15T06:23:14.087Z,18.30
2018-03-15T06:24:14.063Z,18.50
2018-03-15T06:25:13.982Z,18.60
2018-03-15T06:26:13.929Z,18.80
2018-03-15T06:27:13.877Z,18.70
2018-03-15T06:28:13.826Z,18.50
2018-03-15T06:29:13.801Z,18.70
2018-03-15T06:30:13.724Z,17.60
2018-03-15T06:31:13.675Z,18.50
2018-03-15T06:32:13.622Z,17.80
2018-03-15T06:33:13.569Z,18.30
2018-03-15T06:34:13.540Z,18.70
2018-03-15T06:35:13.467Z,18.40
2018-03-15T06:36:13.418Z,17.50
2018-03-15T06:37:13.360Z,18.40
2018-03-15T06:38:13.316Z,18.50
2018-03-15T06:39:13.283Z,18.50
2018-03-15T06:40:13.202Z,18.30
2018-03-15T06:41:13.160Z,18.40
2018-03-15T06:42:13.105Z,19.00
2018-03-15T06:43:13.052Z,18.10
2018-03-15T06:44:13.026Z,18.60
2018-03-15T06:45:12.948Z,18.60
2018-03-15T06:46:12.901Z,17.80
2018-03-15T06:47:12.845Z,18.30
2018-03-15T06:48:12.795Z,18.00
2018-03-15T06:49:12.769Z,17.70
2018-03-15T06:50:12.736Z,18.00
2018-03-15T06:51:12.703Z,18.60
2018-03-15T06:52:12.632Z,17.60
2018-03-15T06:53:12.672Z,18.70
2018-03-15T06:54:12.512Z,18.10
2018-03-15T06:55:12.434Z,17.70
2018-03-15T06:56:12.384Z,17.40
2018-03-15T06:57:12.333Z,17.70
2018-03-15T06:58:12.289Z,17.60
2018-03-15T06:59:12.255Z,17.40
2018-03-15T07:00:12.180Z,18.20
2018-03-15T07:01:12.133Z,17.50
2018-03-15T07:02:12.077Z,17.50
2018-03-15T07:03:12.028Z,17.70
2018-03-15T07:04:11.998Z,17.30
2018-03-15T07:05:11.926Z,17.30
2018-03-15T07:06:11.874Z,17.40
2018-03-15T07:07:11.823Z,16.70
2018-03-15T07:08:11.773Z,17.00
2018-03-15T07:09:11.746Z,16.80
2018-03-15T07:10:11.672Z,17.60
2018-03-15T07:11:11.620Z,16.80
2018-03-15T07:12:11.576Z,17.90
2018-03-15T07:13:11.519Z,17.40
2018-03-15T07:14:11.495Z,17.60
2018-03-15T07:15:11.420Z,17.60
2018-03-15T07:16:11.373Z,16.80
2018-03-15T07:17:11.320Z,17.40
2018-03-15T07:18:11.270Z,17.40
2018-03-15T07:19:11.243Z,17.20
2018-03-15T07:20:11.171Z,17.80
2018-03-15T07:21:11.118Z,17.80
2018-03-15T07:22:11.072Z,16.90
2018-03-15T07:23:11.020Z,16.50
2018-03-15T07:24:10.991Z,17.10
2018-03-15T07:25:10.921Z,16.80
2018-03-15T07:26:10.869Z,17.20
2018-03-15T07:27:10.817Z,17.80
2018-03-15T07:28:10.772Z,16.80
2018-03-15T07:29:10.742Z,16.90
2018-03-15T07:30:10.668Z,16.20
2018-03-15T07:31:10.618Z,16.40
2018-03-15T07:32:10.569Z,17.20
2018-03-15T07:33:10.517Z,17.00
2018-03-15T07:34:10.492Z,17.00
2018-03-15T07:35:10.419Z,16.80
2018-03-15T07:36:10.370Z,17.70
2018-03-15T07:37:10.323Z,16.90
2018-03-15T07:38:10.275Z,16.30
2018-03-15T07:39:10.244Z,16.90
2018-03-15T07:40:10.174Z,16.70
2018-03-15T07:41:10.122Z,17.00
2018-03-15T07:42:10.070Z,16.30
2018-03-15T07:43:10.022Z,15.80
2018-03-15T07:44:09.996Z,16.50
2018-03-15T07:45:09.919Z,16.10
2018-03-15T07:46:09.873Z,17.10
2018-03-15T07:47:09.825Z,17.00
2018-03-15T07:48:09.776Z,16.60
2018-03-15T07:49:09.747Z,17.10
2018-03-15T07:50:09.673Z,17.00
2018-03-15T07:51:09.620Z,17.10
2018-03-15T07:52:09.572Z,17.10
2018-03-15T07:53:09.524Z,17.60
2018-03-15T07:54:09.497Z,16.70
2018-03-15T07:55:09.423Z,17.10
2018-03-15T07:56:09.374Z,16.10
2018-03-15T07:57:09.323Z,15.80
2018-03-15T07:58:09.277Z,15.80
2018-03-15T07:59:09.247Z,16.50
2018-03-15T08:00:09.175Z,16.10
2018-03-15T08:01:09.136Z,16.20
2018-03-15T08:02:09.095Z,16.30
2018-03-15T08:03:09.024Z,16.30
2018-03-15T08:04:09.002Z,15.90
2018-03-15T08:05:08.929Z,16.90
2018-03-15T08:06:08.881Z,16.30
2018-03-15T08:07:08.834Z,16.40
2018-03-15T08:08:08.780Z,15.70
2018-03-15T08:09:08.754Z,16.50
2018-03-15T08:10:08.682Z,16.60
2018-03-15T08:11:08.635Z,16.80
2018-03-15T08:12:08.604Z,16.20
2018-03-15T08:13:08.536Z,17.00
2018-03-15T08:14:08.510Z,16.60
2018-03-15T08:15:08.433Z,16.50
2018-03-15T08:16:08.383Z,16.70
2018-03-15T08:17:08.339Z,16.30
2018-03-15T08:18:08.288Z,16.20
2018-03-15T08:19:08.268Z,16.80
2018-03-15T08:20:08.188Z,15.70
2018-03-15T08:21:08.149Z,16.70
2018-03-15T08:22:08.091Z,15.70
2018-03-15T08:23:08.041Z,16.10
2018-03-15T08:24:08.016Z,16.10
2018-03-15T08:25:07.946Z,16.50
2018-03-15T08:26:07.895Z,16.40
2018-03-15T08:27:07.841Z,15.90
2018-03-15T08:28:07.795Z,16.80
2018-03-15T08:29:07.773Z,16.60
2018-03-15T08:30:07.696Z,16.90
2018-03-15T08:31:07.649Z,16.10
2018-03-15T08:32:07.599Z,16.80
2018-03-15T08:33:07.549Z,15.90
2018-03-15T08:34:07.522Z,16.80
2018-03-15T08:35:07.461Z,16.60
2018-03-15T08:36:07.401Z,15.90
2018-03-15T08:37:07.353Z,16.90
2018-03-15T08:38:07.301Z,16.70
2018-03-15T08:39:07.282Z,15.90
2018-03-15T08:40:07.228Z,16.00
2018-03-15T08:41:07.161Z,16.00
2018-03-15T08:42:07.114Z,16.40
2018-03-15T08:43:07.061Z,16.10
2018-03-15T08:44:07.034Z,17.30
2018-03-15T08:45:06.988Z,16.50
2018-03-15T08:46:06.916Z,16.70
2018-03-15T08:47:06.864Z,15.80
2018-03-15T08:48:06.819Z,15.60
2018-03-15T08:49:06.769Z,15.90
2018-03-15T08:50:06.750Z,15.90
2018-03-15T08:51:06.681Z,15.50
2018-03-15T08:52:06.629Z,15.60
2018-03-15T08:53:06.573Z,15.00
2018-03-15T08:54:06.526Z,14.00
2018-03-15T08:55:06.498Z,14.60
2018-03-15T08:56:06.428Z,14.90
2018-03-15T08:57:06.385Z,14.10
2018-03-15T08:58:06.331Z,14.80
2018-03-15T08:59:06.289Z,14.00
2018-03-15T09:00:06.259Z,14.00
2018-03-15T09:01:06.187Z,13.90
2018-03-15T09:02:06.137Z,14.30
2018-03-15T09:03:06.090Z,14.20
2018-03-15T09:04:06.168Z,14.00
2018-03-15T09:05:06.019Z,14.30
2018-03-15T09:06:05.949Z,13.30
2018-03-15T09:07:05.895Z,13.70
2018-03-15T09:08:05.850Z,13.70
2018-03-15T09:09:05.817Z,13.90
2018-03-15T09:10:05.777Z,14.20
2018-03-15T09:11:05.705Z,14.10
2018-03-15T09:12:05.658Z,14.00
2018-03-15T09:13:05.608Z,14.10
2018-03-15T09:14:05.563Z,13.90
2018-03-15T09:15:05.536Z,14.00
2018-03-15T09:16:05.470Z,14.50
2018-03-15T09:17:05.475Z,13.80
2018-03-15T09:18:05.373Z,14.20
2018-03-15T09:19:05.322Z,14.40
2018-03-15T09:20:05.299Z,14.00
2018-03-15T09:21:05.225Z,14.90
2018-03-15T09:22:05.177Z,13.60
2018-03-15T09:23:05.178Z,14.20
2018-03-15T09:24:05.092Z,14.60
2018-03-15T09:25:05.061Z,14.90
2018-03-15T09:26:04.982Z,14.20
2018-03-15T09:27:04.940Z,13.70
2018-03-15T09:28:04.919Z,14.80
2018-03-15T09:29:04.883Z,14.60
2018-03-15T09:30:04.826Z,14.10
2018-03-15T09:31:04.746Z,14.50
2018-03-15T09:32:04.698Z,14.10
2018-03-15T09:33:04.650Z,13.90
2018-03-15T09:34:04.602Z,14.40
2018-03-15T09:35:04.579Z,13.40
2018-03-15T09:36:04.509Z,13.50
2018-03-15T09:37:04.460Z,13.80
2018-03-15T09:38:04.414Z,13.30
2018-03-15T09:39:04.364Z,13.90
2018-03-15T09:40:04.340Z,13.30
2018-03-15T09:41:04.268Z,13.50
2018-03-15T09:42:04.259Z,13.80
2018-03-15T09:43:04.173Z,13.30
2018-03-15T09:44:04.129Z,13.70
2018-03-15T09:45:04.100Z,14.10
2018-03-15T09:46:04.075Z,13.50
2018-03-15T09:47:03.989Z,14.20
2018-03-15T09:48:03.960Z,13.90
2018-03-15T09:49:03.888Z,13.40
2018-03-15T09:50:03.916Z,14.60
2018-03-15T09:51:03.802Z,14.20
2018-03-15T09:52:03.745Z,13.30
2018-03-15T09:53:03.697Z,14.00
2018-03-15T09:54:03.647Z,14.10
2018-03-15T09:55:03.627Z,14.70
2018-03-15T09:56:03.554Z,13.90
2018-03-15T09:57:03.506Z,14.20
2018-03-15T09:58:03.459Z,14.60
2018-03-15T09:59:03.412Z,14.70
2018-03-15T10:00:03.390Z,14.40
2018-03-15T10:01:03.323Z,14.20
2018-03-15T10:02:03.270Z,14.90
2018-03-15T10:03:03.220Z,14.20
2018-03-15T10:04:03.179Z,14.90
2018-03-15T10:05:03.155Z,14.20
2018-03-15T10:06:03.083Z,14.30
2018-03-15T10:07:03.032Z,14.60
2018-03-15T10:08:02.989Z,14.60
2018-03-15T10:09:02.946Z,14.20
2018-03-15T10:10:02.913Z,15.10
2018-03-15T10:11:02.845Z,14.00
2018-03-15T10:12:02.801Z,14.30
2018-03-15T10:13:02.748Z,14.40
2018-03-15T10:14:02.703Z,13.60
2018-03-15T10:15:02.679Z,14.10
2018-03-15T10:16:02.608Z,13.70
2018-03-15T10:17:02.561Z,13.70
2018-03-15T10:18:02.515Z,14.10
2018-03-15T10:19:02.464Z,14.10
2018-03-15T10:20:02.442Z,14.40
2018-03-15T10:21:02.371Z,14.80
2018-03-15T10:22:02.324Z,13.80
2018-03-15T10:23:02.280Z,14.30
2018-03-15T10:24:02.229Z,14.30
2018-03-15T10:25:13.607Z,14.70
2018-03-15T10:26:02.136Z,15.00
2018-03-15T10:27:02.088Z,14.60
2018-03-15T10:28:02.046Z,14.60
2018-03-15T10:29:01.997Z,14.00
2018-03-15T10:30:01.971Z,14.10
2018-03-15T10:31:01.909Z,14.00
2018-03-15T10:32:01.860Z,14.00
2018-03-15T10:33:01.807Z,14.30
2018-03-15T10:34:01.762Z,14.00
2018-03-15T10:35:01.735Z,14.20
2018-03-15T10:36:01.664Z,14.30
2018-03-15T10:37:01.622Z,13.30
2018-03-15T10:38:01.570Z,13.70
2018-03-15T10:39:01.524Z,13.90
2018-03-15T10:40:01.498Z,13.70
2018-03-15T10:41:01.428Z,13.90
2018-03-15T10:42:01.384Z,14.20
2018-03-15T10:43:01.334Z,14.40
2018-03-15T10:44:01.287Z,14.90
2018-03-15T10:45:01.266Z,14.40
2018-03-15T10:46:01.190Z,14.50
2018-03-15T10:47:01.171Z,14.30
2018-03-15T10:48:01.100Z,13.20
2018-03-15T10:49:01.053Z,14.00
2018-03-15T10:50:01.026Z,13.50
2018-03-15T10:51:00.957Z,14.00
2018-03-15T10:52:00.912Z,13.70
2018-03-15T10:53:00.865Z,14.00
2018-03-15T10:54:00.817Z,13.80
2018-03-15T10:55:00.793Z,14.10
2018-03-15T10:56:00.716Z,14.10
2018-03-15T10:57:00.675Z,13.60
2018-03-15T10:58:00.627Z,13.90
2018-03-15T10:59:00.579Z,13.30
2018-03-15T11:00:00.593Z,13.40
2018-03-15T11:01:00.489Z,13.50
2018-03-15T11:02:00.436Z,13.30
2018-03-15T11:03:00.395Z,15.00
2018-03-15T11:04:00.343Z,15.20
2018-03-15T11:05:00.325Z,14.50
2018-03-15T11:06:00.256Z,16.00
2018-03-15T11:07:00.206Z,16.00
2018-03-15T11:08:00.158Z,16.50
2018-03-15T11:09:00.114Z,16.60
2018-03-15T11:10:00.088Z,17.00
2018-03-15T11:11:00.018Z,16.30
2018-03-15T11:11:59.973Z,16.70
2018-03-15T11:12:59.925Z,17.20
2018-03-15T11:13:59.878Z,16.60
2018-03-15T11:14:59.856Z,16.50
2018-03-15T11:15:59.783Z,16.90
2018-03-15T11:16:59.736Z,16.50
2018-03-15T11:17:59.691Z,16.50
2018-03-15T11:18:59.648Z,16.30
2018-03-15T11:19:59.627Z,16.90
2018-03-15T11:20:59.550Z,16.00
2018-03-15T11:21:59.502Z,16.60
2018-03-15T11:22:59.453Z,15.60
2018-03-15T11:23:59.455Z,15.80
2018-03-15T11:24:59.367Z,16.10
2018-03-15T11:25:59.342Z,16.00
2018-03-15T11:26:59.265Z,16.30
2018-03-15T11:27:59.226Z,15.90
2018-03-15T11:28:59.175Z,17.00
2018-03-15T11:29:59.128Z,16.50
2018-03-15T11:30:59.103Z,16.80
2018-03-15T11:31:59.037Z,17.00
2018-03-15T11:32:58.986Z,16.30
2018-03-15T11:33:58.936Z,16.50
2018-03-15T11:34:58.892Z,16.30
2018-03-15T11:35:58.871Z,16.70
2018-03-15T11:36:58.799Z,15.90
2018-03-15T11:37:58.750Z,15.50
2018-03-15T11:38:58.702Z,16.30
2018-03-15T11:39:58.660Z,16.20
2018-03-15T11:40:58.632Z,15.80
2018-03-15T11:41:58.562Z,15.90
2018-03-15T11:42:58.519Z,16.10
2018-03-15T11:43:58.466Z,16.20
2018-03-15T11:44:58.423Z,17.00
2018-03-15T11:45:58.407Z,16.90
2018-03-15T11:46:58.333Z,16.80
2018-03-15T11:47:58.285Z,15.90
2018-03-15T11:48:58.238Z,17.20
2018-03-15T11:49:58.189Z,17.80
2018-03-15T11:50:58.164Z,17.40
2018-03-15T11:51:58.097Z,17.70
2018-03-15T11:52:58.049Z,18.20
2018-03-15T11:53:58.001Z,17.40
2018-03-15T11:54:57.955Z,17.80
2018-03-15T11:55:57.935Z,17.60
2018-03-15T11:56:57.866Z,18.30
2018-03-15T11:57:57.812Z,18.10
2018-03-15T11:58:57.770Z,18.30
2018-03-15T11:59:57.724Z,18.40
2018-03-15T12:00:57.698Z,17.90
2018-03-15T12:01:57.629Z,18.50
2018-03-15T12:02:57.583Z,17.90
2018-03-15T12:03:57.536Z,17.50
2018-03-15T12:04:57.488Z,17.40
2018-03-15T12:05:57.463Z,17.70
2018-03-15T12:06:57.393Z,17.50
2018-03-15T12:07:57.352Z,16.80
2018-03-15T12:08:57.301Z,17.80
2018-03-15T12:09:57.257Z,17.40
2018-03-15T12:10:57.232Z,17.90
2018-03-15T12:11:57.162Z,17.80
2018-03-15T12:12:57.111Z,17.20
2018-03-15T12:13:57.069Z,17.70
2018-03-15T12:14:57.021Z,18.10
2018-03-15T12:15:57.005Z,17.00
2018-03-15T12:16:56.929Z,16.80
2018-03-15T12:17:56.883Z,17.30
2018-03-15T12:18:56.839Z,17.20
2018-03-15T12:19:56.786Z,17.00
2018-03-15T12:20:56.829Z,16.70
2018-03-15T12:21:56.698Z,16.40
2018-03-15T12:22:56.649Z,16.90
2018-03-15T12:23:56.603Z,16.70
2018-03-15T12:24:56.555Z,16.80
2018-03-15T12:25:56.528Z,17.00
2018-03-15T12:26:56.461Z,17.50
2018-03-15T12:27:56.414Z,17.20
2018-03-15T12:28:56.372Z,17.10
2018-03-15T12:29:56.320Z,16.50
2018-03-15T12:30:56.299Z,17.00
2018-03-15T12:31:56.233Z,17.80
2018-03-15T12:32:56.186Z,17.20
2018-03-15T12:33:56.134Z,17.10
2018-03-15T12:34:56.124Z,16.50
2018-03-15T12:35:56.068Z,16.80
2018-03-15T12:36:55.994Z,17.30
2018-03-15T12:37:55.953Z,17.10
2018-03-15T12:38:55.904Z,16.40
2018-03-15T12:39:55.858Z,16.60
2018-03-15T12:40:55.842Z,16.10
2018-03-15T12:41:55.766Z,16.30
2018-03-15T12:42:55.719Z,16.50
2018-03-15T12:43:55.673Z,16.20
2018-03-15T12:44:55.626Z,15.80
2018-03-15T12:45:55.604Z,16.20
2018-03-15T12:46:55.534Z,15.50
2018-03-15T12:47:55.489Z,15.60
2018-03-15T12:48:55.445Z,16.00
2018-03-15T12:49:55.394Z,15.80
2018-03-15T12:50:55.370Z,15.30
2018-03-15T12:51:55.304Z,15.50
2018-03-15T12:52:55.294Z,15.10